Time;durP1;ratioP1;P1;durP2;ratioP2;P2;SDS_P1;SDS_P2;PMS_P1;PMS_P2;Temp;Humidity;BMP_temperature;BMP_pressure;BME280_temperature;BME280_humidity;BME280_pressure;Samples;Min_cycle;Max_cycle;Signal;HPM_P1;HPM_P2
2023/07/12 00:00:30;;;;;;;22.63;11.48;;;691.40;2432.00;;;;;;5080930;28;20115;-70
2023/07/12 00:02:57;;;;;;;22.50;11.88;;;691.40;2432.00;;;;;;5088313;28;20068;-70
2023/07/12 00:05:28;;;;;;;18.42;11.48;;;691.40;2432.00;;;;;;5082596;28;20062;-70
2023/07/12 00:07:56;;;;;;;21.45;11.55;;;691.40;2432.00;;;;;;5083412;28;20024;-74
2023/07/12 00:10:24;;;;;;;17.25;11.40;;;691.40;2432.00;;;;;;5078273;28;20036;-69
2023/07/12 00:12:50;;;;;;;17.23;12.07;;;691.40;2432.00;;;;;;5082030;28;20029;-71
2023/07/12 00:15:31;;;;;;;17.02;12.20;;;691.50;2432.00;;;;;;5079679;28;20032;-71
2023/07/12 00:17:57;;;;;;;17.70;11.35;;;691.50;2432.00;;;;;;5088205;28;20080;-72
2023/07/12 00:20:27;;;;;;;26.70;11.63;;;691.40;2432.00;;;;;;5085263;28;20020;-70
2023/07/12 00:22:53;;;;;;;24.13;12.02;;;691.30;2432.00;;;;;;5085744;28;20118;-70
2023/07/12 00:25:21;;;;;;;24.20;13.07;;;666.40;2432.00;;;;;;5078914;28;20390;-71
2023/07/12 00:27:47;;;;;;;18.17;11.77;;;666.30;2432.00;;;;;;5088433;28;20039;-71
2023/07/12 00:30:18;;;;;;;18.33;11.70;;;666.40;2432.00;;;;;;5082933;28;20474;-71
2023/07/12 00:32:48;;;;;;;21.05;11.98;;;666.50;2432.00;;;;;;5081405;28;20035;-71
2023/07/12 00:35:23;;;;;;;25.58;12.70;;;691.20;2432.00;;;;;;5084535;28;20096;-70
2023/07/12 00:37:54;;;;;;;;;;;691.20;2432.00;;;;;;5082602;28;20520;-70
2023/07/12 00:40:41;;;;;;;17.25;11.82;;;691.20;2432.00;;;;;;5084039;28;19908;-75
2023/07/12 00:43:16;;;;;;;22.60;11.45;;;691.20;2432.00;;;;;;5081445;28;20061;-70
2023/07/12 00:45:44;;;;;;;21.23;12.10;;;691.20;2432.00;;;;;;5082199;28;20021;-71
2023/07/12 00:48:11;;;;;;;16.27;10.65;;;691.30;2432.00;;;;;;5084844;28;20107;-70
2023/07/12 00:50:38;;;;;;;17.77;12.57;;;691.30;2432.00;;;;;;5079217;28;20033;-70
2023/07/12 00:53:04;;;;;;;22.13;12.02;;;691.30;2432.00;;;;;;5085632;28;20057;-70
2023/07/12 00:55:51;;;;;;;18.30;12.27;;;691.30;2432.00;;;;;;5083317;28;20058;-71
2023/07/12 00:58:17;;;;;;;18.48;12.30;;;691.40;2432.00;;;;;;5083871;28;20032;-71
2023/07/12 01:00:42;;;;;;;24.38;11.95;;;691.40;2432.00;;;;;;5085679;28;20024;-70
2023/07/12 01:03:13;;;;;;;17.85;11.27;;;691.40;2432.00;;;;;;5082370;28;20058;-70
2023/07/12 01:05:44;;;;;;;19.52;12.43;;;691.40;2432.00;;;;;;5080088;28;20063;-71
2023/07/12 01:08:14;;;;;;;19.92;11.43;;;691.30;2432.00;;;;;;5086412;28;20028;-71
2023/07/12 01:10:40;;;;;;;20.30;11.13;;;691.40;2432.00;;;;;;5089078;28;20608;-71
2023/07/12 01:13:09;;;;;;;20.33;11.38;;;691.30;2432.00;;;;;;5094090;28;20095;-70
2023/07/12 01:15:36;;;;;;;22.23;10.75;;;691.40;2432.00;;;;;;5093978;28;20477;-71
2023/07/12 01:18:03;;;;;;;19.45;10.73;;;691.40;2432.00;;;;;;5092978;28;20536;-70
2023/07/12 01:20:35;;;;;;;20.15;11.27;;;691.40;2432.00;;;;;;5093747;28;20111;-70
2023/07/12 01:23:02;;;;;;;19.83;11.60;;;691.40;2432.00;;;;;;5092325;28;20036;-77
2023/07/12 01:25:46;;;;;;;18.77;10.90;;;691.40;2432.00;;;;;;5093856;28;20017;-70
2023/07/12 01:28:12;;;;;;;21.05;11.60;;;691.40;2432.00;;;;;;5093904;28;20366;-70
2023/07/12 01:30:39;;;;;;;19.65;11.30;;;691.40;2432.00;;;;;;5093865;28;20024;-70
2023/07/12 01:33:05;;;;;;;23.13;11.20;;;691.40;2432.00;;;;;;5093470;28;20031;-72
2023/07/12 01:35:32;;;;;;;27.58;11.25;;;691.30;2432.00;;;;;;5093472;28;20099;-71
2023/07/12 01:37:58;;;;;;;16.75;12.45;;;691.40;2432.00;;;;;;5093475;28;20036;-71
2023/07/12 01:40:23;;;;;;;21.98;11.43;;;691.40;2432.00;;;;;;5093670;28;20024;-71
2023/07/12 01:42:49;;;;;;;16.55;11.05;;;691.30;2432.00;;;;;;5093516;28;20507;-72
2023/07/12 01:45:15;;;;;;;20.95;11.30;;;691.40;2432.00;;;;;;5093736;28;20024;-71
2023/07/12 01:47:41;;;;;;;24.77;11.20;;;691.30;2432.00;;;;;;5093302;28;20395;-71
2023/07/12 01:50:07;;;;;;;15.00;10.32;;;691.30;2432.00;;;;;;5093394;28;20405;-72
2023/07/12 01:52:32;;;;;;;16.17;10.52;;;666.40;2432.00;;;;;;5093414;28;20034;-74
2023/07/12 01:54:58;;;;;;;13.75;10.95;;;666.40;2432.00;;;;;;5093513;28;20486;-70
2023/07/12 01:57:24;;;;;;;17.38;11.13;;;666.30;2432.00;;;;;;5093075;28;20042;-70
2023/07/12 01:59:49;;;;;;;18.77;11.68;;;666.20;2432.00;;;;;;5093253;28;20068;-71
2023/07/12 02:02:15;;;;;;;20.10;12.25;;;666.00;2432.00;;;;;;5093516;28;20476;-72
2023/07/12 02:04:41;;;;;;;22.65;12.38;;;665.70;2432.00;;;;;;5092919;28;20081;-71
2023/07/12 02:07:07;;;;;;;14.75;11.10;;;665.60;2432.00;;;;;;5093204;28;20063;-71
2023/07/12 02:09:38;;;;;;;15.73;10.77;;;665.60;2432.00;;;;;;5093377;28;20024;-71
2023/07/12 02:12:05;;;;;;;20.25;11.20;;;640.90;2432.00;;;;;;5093177;28;20016;-70
2023/07/12 02:14:30;;;;;;;23.40;11.98;;;640.70;2432.00;;;;;;5093173;28;20050;-74
2023/07/12 02:16:56;;;;;;;20.33;12.18;;;640.70;2432.00;;;;;;5093044;28;20028;-70
2023/07/12 02:19:22;;;;;;;25.35;14.45;;;640.60;2432.00;;;;;;5092976;28;20497;-71
2023/07/12 02:21:47;;;;;;;20.17;12.68;;;640.60;2432.00;;;;;;5093324;28;20385;-70
2023/07/12 02:24:13;;;;;;;19.63;13.07;;;640.60;2432.00;;;;;;5093404;28;20412;-74
2023/07/12 02:26:41;;;;;;;18.55;13.13;;;640.40;2432.00;;;;;;5092946;28;20024;-70
2023/07/12 02:29:07;;;;;;;22.23;13.88;;;640.40;2432.00;;;;;;5094155;28;20394;-70
2023/07/12 02:31:33;;;;;;;19.45;12.88;;;640.40;2432.00;;;;;;5097191;28;20032;-71
2023/07/12 02:33:59;;;;;;;20.67;13.65;;;640.40;2432.00;;;;;;5096938;28;20069;-70
2023/07/12 02:36:25;;;;;;;25.27;13.73;;;640.30;2432.00;;;;;;5097005;28;20560;-71
2023/07/12 02:38:51;;;;;;;24.58;13.73;;;640.20;2432.00;;;;;;5096947;28;20419;-71
2023/07/12 02:41:17;;;;;;;22.60;13.18;;;640.10;2432.00;;;;;;5096911;28;20024;-70
2023/07/12 02:43:47;;;;;;;25.25;14.57;;;640.00;2432.00;;;;;;5097135;28;20024;-71
2023/07/12 02:46:13;;;;;;;20.73;14.02;;;615.30;2432.00;;;;;;5096922;28;20091;-71
2023/07/12 02:48:38;;;;;;;19.70;14.25;;;615.20;2432.00;;;;;;5096781;28;20024;-72
2023/07/12 02:51:04;;;;;;;21.40;13.57;;;615.10;2432.00;;;;;;5096698;28;20020;-71
2023/07/12 02:53:33;;;;;;;22.00;14.13;;;615.10;2432.00;;;;;;5096875;28;20342;-74
2023/07/12 02:55:59;;;;;;;24.67;14.65;;;615.00;2432.00;;;;;;5096788;28;20094;-71
2023/07/12 02:58:24;;;;;;;29.50;15.60;;;615.00;2432.00;;;;;;5096539;28;20111;-72
2023/07/12 03:00:56;;;;;;;21.70;14.68;;;615.00;2432.00;;;;;;5096641;28;20028;-71
2023/07/12 03:03:22;;;;;;;25.27;14.25;;;615.10;2432.00;;;;;;5095099;28;20427;-71
2023/07/12 03:05:48;;;;;;;22.50;13.70;;;615.00;2432.00;;;;;;5096063;28;20044;-71
2023/07/12 03:08:14;;;;;;;24.95;14.90;;;615.00;2432.00;;;;;;5096172;28;20025;-71
2023/07/12 03:10:39;;;;;;;27.23;15.80;;;615.00;2432.00;;;;;;5096127;28;20032;-71
2023/07/12 03:13:05;;;;;;;27.63;16.50;;;615.10;2432.00;;;;;;5095159;28;20060;-71
2023/07/12 03:15:31;;;;;;;26.67;15.43;;;615.20;2432.00;;;;;;5096208;28;20024;-71
2023/07/12 03:17:56;;;;;;;22.88;14.27;;;615.20;2432.00;;;;;;5096096;28;20039;-71
2023/07/12 03:20:22;;;;;;;23.77;14.85;;;615.20;2432.00;;;;;;5095923;28;20103;-71
2023/07/12 03:22:48;;;;;;;20.45;14.35;;;615.20;2432.00;;;;;;5095865;28;20435;-71
2023/07/12 03:25:14;;;;;;;20.70;15.85;;;615.30;2432.00;;;;;;5096107;28;20102;-71
2023/07/12 03:27:39;;;;;;;21.33;16.27;;;615.30;2432.00;;;;;;5096038;28;20085;-70
2023/07/12 03:30:06;;;;;;;23.65;16.98;;;615.20;2432.00;;;;;;5095864;28;20097;-70
2023/07/12 03:32:32;;;;;;;23.33;15.30;;;615.30;2432.00;;;;;;5095862;28;20026;-71
2023/07/12 03:34:57;;;;;;;28.33;16.40;;;615.30;2432.00;;;;;;5095567;28;20020;-74
2023/07/12 03:37:23;;;;;;;30.40;18.42;;;615.30;2432.00;;;;;;5095922;28;20042;-71
2023/07/12 03:39:50;;;;;;;28.63;16.55;;;640.00;2432.00;;;;;;5095818;28;20074;-72
2023/07/12 03:42:16;;;;;;;39.22;22.73;;;640.00;2432.00;;;;;;5094722;28;20103;-72
2023/07/12 03:44:42;;;;;;;68.45;32.13;;;640.20;2432.00;;;;;;5095726;28;20100;-70
2023/07/12 03:47:07;;;;;;;55.20;30.02;;;640.30;2432.00;;;;;;5095590;28;20032;-73
2023/07/12 03:49:33;;;;;;;51.03;28.52;;;640.40;2432.00;;;;;;5095493;28;20051;-71
2023/07/12 03:51:59;;;;;;;45.63;26.98;;;640.50;2432.00;;;;;;5095322;28;20020;-71
2023/07/12 03:54:25;;;;;;;50.58;27.23;;;640.40;2432.00;;;;;;5095502;28;20047;-71
2023/07/12 03:56:50;;;;;;;56.47;29.60;;;640.50;2432.00;;;;;;5095305;28;20039;-71
2023/07/12 03:59:16;;;;;;;54.50;27.67;;;640.60;2432.00;;;;;;5095425;28;20035;-73
2023/07/12 04:01:41;;;;;;;39.40;25.08;;;640.70;2432.00;;;;;;5095183;28;20024;-71
2023/07/12 04:04:07;;;;;;;45.65;23.17;;;640.90;2432.00;;;;;;5095182;28;20024;-71
2023/07/12 04:06:33;;;;;;;36.10;21.08;;;640.90;2432.00;;;;;;5094824;28;20554;-71
2023/07/12 04:08:59;;;;;;;29.25;19.02;;;640.90;2432.00;;;;;;5095344;28;20028;-71
2023/07/12 04:11:30;;;;;;;33.13;17.15;;;665.60;2432.00;;;;;;5095210;28;20032;-78
2023/07/12 04:13:56;;;;;;;31.98;19.38;;;665.70;2432.00;;;;;;5095112;28;20024;-71
2023/07/12 04:16:25;;;;;;;22.27;17.48;;;665.60;2432.00;;;;;;5095424;28;20420;-72
2023/07/12 04:18:52;;;;;;;31.17;18.35;;;665.70;2432.00;;;;;;5096290;28;20492;-70
2023/07/12 04:21:18;;;;;;;37.75;18.98;;;665.80;2432.00;;;;;;5095265;28;20374;-71
2023/07/12 04:23:47;;;;;;;26.85;18.55;;;665.90;2432.00;;;;;;5095345;28;20035;-71
2023/07/12 04:26:13;;;;;;;25.80;17.35;;;665.90;2432.00;;;;;;5095686;28;20035;-71
2023/07/12 04:28:40;;;;;;;33.33;20.80;;;665.90;2432.00;;;;;;5095067;28;20481;-71
2023/07/12 04:31:09;;;;;;;24.83;17.70;;;665.90;2432.00;;;;;;5094754;28;20020;-71
2023/07/12 04:33:35;;;;;;;30.15;18.08;;;665.80;2432.00;;;;;;5094839;28;20050;-71
2023/07/12 04:36:06;;;;;;;29.55;19.02;;;665.80;2432.00;;;;;;5094270;28;20028;-71
2023/07/12 04:38:32;;;;;;;26.95;18.88;;;665.80;2432.00;;;;;;5094461;28;20363;-70
2023/07/12 04:40:57;;;;;;;23.50;17.70;;;665.90;2432.00;;;;;;5094889;28;20143;-71
2023/07/12 04:43:23;;;;;;;24.88;18.73;;;665.90;2432.00;;;;;;5094603;28;20054;-70
2023/07/12 04:45:49;;;;;;;23.13;17.13;;;666.00;2432.00;;;;;;5087936;28;20028;-70
2023/07/12 04:48:15;;;;;;;27.33;19.25;;;666.10;2432.00;;;;;;5080630;28;20119;-70
2023/07/12 04:50:40;;;;;;;20.80;17.73;;;666.30;2432.00;;;;;;5085731;28;20099;-70
2023/07/12 04:53:06;;;;;;;26.63;17.77;;;666.30;2432.00;;;;;;5077215;28;20032;-70
2023/07/12 04:55:32;;;;;;;23.77;18.05;;;666.30;2432.00;;;;;;5076517;28;20374;-70
2023/07/12 04:57:58;;;;;;;22.60;17.80;;;666.30;2432.00;;;;;;5079679;28;20037;-70
2023/07/12 05:00:24;;;;;;;28.08;17.33;;;691.20;2432.00;;;;;;5085054;28;20512;-70
2023/07/12 05:02:51;;;;;;;26.42;19.67;;;691.20;2432.00;;;;;;5080797;28;20032;-70
2023/07/12 05:05:17;;;;;;;33.95;20.00;;;666.40;2432.00;;;;;;5076983;28;20035;-71
2023/07/12 05:07:43;;;;;;;30.25;19.90;;;666.50;2432.00;;;;;;5085936;28;20032;-71
2023/07/12 05:10:10;;;;;;;29.92;19.92;;;691.20;2432.00;;;;;;5083142;28;20134;-71
2023/07/12 05:12:37;;;;;;;26.88;20.10;;;691.20;2432.00;;;;;;5080284;28;20490;-71
2023/07/12 05:15:04;;;;;;;34.28;21.40;;;666.50;2432.00;;;;;;5075016;28;20097;-70
2023/07/12 05:17:29;;;;;;;38.13;22.02;;;666.50;2432.00;;;;;;5083542;28;20155;-70
2023/07/12 05:19:56;;;;;;;31.58;21.60;;;666.50;2432.00;;;;;;5085606;28;20111;-72
2023/07/12 05:22:22;;;;;;;28.48;21.70;;;666.30;2432.00;;;;;;5077180;28;20163;-72
2023/07/12 05:24:48;;;;;;;28.13;21.77;;;666.40;2432.00;;;;;;5079782;28;20475;-70
2023/07/12 05:27:14;;;;;;;25.52;22.02;;;666.40;2432.00;;;;;;5084735;28;20028;-72
2023/07/12 05:29:39;;;;;;;32.22;21.90;;;666.50;2432.00;;;;;;5082496;28;20024;-71
2023/07/12 05:32:05;;;;;;;31.50;21.75;;;691.20;2432.00;;;;;;5082820;28;20028;-72
2023/07/12 05:34:31;;;;;;;30.20;19.83;;;691.30;2432.00;;;;;;5075662;28;20096;-71
2023/07/12 05:36:57;;;;;;;27.58;20.63;;;691.20;2432.00;;;;;;5084206;28;20036;-71
2023/07/12 05:39:22;;;;;;;25.65;21.08;;;691.30;2432.00;;;;;;5082705;28;20028;-71
2023/07/12 05:41:48;;;;;;;27.80;19.10;;;691.30;2432.00;;;;;;5077935;28;20017;-69
2023/07/12 05:44:14;;;;;;;33.75;21.55;;;691.40;2432.00;;;;;;5084453;28;20035;-71
2023/07/12 05:46:39;;;;;;;25.60;18.42;;;691.60;2432.00;;;;;;5085362;28;20103;-70
2023/07/12 05:49:05;;;;;;;28.20;18.98;;;691.60;2432.00;;;;;;5077421;28;20058;-70
2023/07/12 05:51:31;;;;;;;31.38;18.98;;;691.70;2432.00;;;;;;5078471;28;20025;-73
2023/07/12 05:53:56;;;;;;;22.63;17.75;;;691.80;2432.00;;;;;;5077344;28;20037;-70
2023/07/12 05:56:22;;;;;;;30.70;18.60;;;691.90;2432.00;;;;;;5085783;28;20385;-70
2023/07/12 05:58:48;;;;;;;27.42;17.20;;;716.80;2432.00;;;;;;5085207;28;20040;-70
2023/07/12 06:01:14;;;;;;;30.25;17.80;;;716.80;2432.00;;;;;;5087851;28;20432;-71
2023/07/12 06:03:41;;;;;;;23.15;17.80;;;716.90;2432.00;;;;;;5084109;28;20020;-70
2023/07/12 06:06:07;;;;;;;26.00;17.40;;;717.00;2432.00;;;;;;5076278;28;20494;-70
2023/07/12 06:08:34;;;;;;;22.23;16.77;;;717.10;2432.00;;;;;;5078136;28;20024;-71
2023/07/12 06:11:00;;;;;;;25.65;16.17;;;717.10;2432.00;;;;;;5081423;28;20028;-71
2023/07/12 06:13:25;;;;;;;25.67;17.00;;;717.10;2432.00;;;;;;5082558;28;20042;-71
2023/07/12 06:15:51;;;;;;;27.67;17.00;;;717.30;2432.00;;;;;;5088769;28;20469;-70
2023/07/12 06:18:17;;;;;;;18.98;15.90;;;717.40;2432.00;;;;;;5082973;28;20093;-72
2023/07/12 06:20:43;;;;;;;24.83;16.00;;;717.50;2432.00;;;;;;5080293;28;20013;-71
2023/07/12 06:23:09;;;;;;;21.40;15.35;;;717.50;2432.00;;;;;;5083388;28;20039;-71
2023/07/12 06:25:35;;;;;;;23.90;15.18;;;717.60;2432.00;;;;;;5082085;28;20374;-71
2023/07/12 06:28:00;;;;;;;25.23;16.88;;;717.70;2432.00;;;;;;5077196;28;20032;-71
2023/07/12 06:30:26;;;;;;;23.48;16.35;;;717.70;2432.00;;;;;;5077216;28;20503;-70
2023/07/12 06:32:52;;;;;;;24.38;15.93;;;742.40;2432.00;;;;;;5084238;28;20093;-71
2023/07/12 06:35:18;;;;;;;23.73;15.32;;;742.40;2432.00;;;;;;5081459;28;20082;-70
2023/07/12 06:37:43;;;;;;;22.48;15.13;;;742.50;2432.00;;;;;;5082611;28;20071;-72
2023/07/12 06:40:09;;;;;;;25.02;15.32;;;742.60;2432.00;;;;;;5077685;28;20508;-71
2023/07/12 06:42:36;;;;;;;22.63;14.98;;;742.60;2432.00;;;;;;5085211;28;20027;-70
2023/07/12 06:45:01;;;;;;;23.80;15.13;;;742.60;2432.00;;;;;;5078548;28;20025;-70
2023/07/12 06:47:28;;;;;;;21.33;16.05;;;742.80;2432.00;;;;;;5085325;28;20170;-70
2023/07/12 06:49:54;;;;;;;24.83;14.23;;;742.80;2432.00;;;;;;5081159;28;20108;-73
2023/07/12 06:52:20;;;;;;;19.60;14.40;;;742.90;2432.00;;;;;;5078556;28;20068;-70
2023/07/12 06:54:46;;;;;;;27.80;14.43;;;743.00;2432.00;;;;;;5084476;28;20078;-71
2023/07/12 06:57:12;;;;;;;18.58;15.23;;;743.10;2432.00;;;;;;5078840;28;20082;-70
2023/07/12 06:59:37;;;;;;;21.90;14.02;;;743.20;2432.00;;;;;;5076556;28;20036;-72
2023/07/12 07:02:03;;;;;;;25.77;15.25;;;743.30;2432.00;;;;;;5075845;28;20054;-70
2023/07/12 07:04:29;;;;;;;26.08;16.63;;;768.00;2432.00;;;;;;5085515;28;20027;-70
2023/07/12 07:06:55;;;;;;;21.27;14.63;;;768.10;2432.00;;;;;;5078895;28;20101;-71
2023/07/12 07:09:20;;;;;;;24.48;14.38;;;768.30;2432.00;;;;;;5082619;28;20032;-71
2023/07/12 07:11:46;;;;;;;20.38;14.38;;;768.40;2432.00;;;;;;5076311;28;20033;-71
2023/07/12 07:14:12;;;;;;;22.60;14.02;;;768.40;2432.00;;;;;;5083002;28;20020;-70
2023/07/12 07:16:38;;;;;;;18.15;13.13;;;768.60;2432.00;;;;;;5079934;28;20036;-71
2023/07/12 07:19:03;;;;;;;15.73;12.57;;;768.70;2432.00;;;;;;5087168;28;20050;-70
2023/07/12 07:21:29;;;;;;;20.90;14.00;;;768.90;2432.00;;;;;;5083669;28;20016;-72
2023/07/12 07:23:55;;;;;;;18.30;13.75;;;793.60;2432.00;;;;;;5088107;28;20032;-71
2023/07/12 07:26:20;;;;;;;20.33;12.15;;;793.70;2432.00;;;;;;5080911;28;20016;-70
2023/07/12 07:28:46;;;;;;;18.42;13.30;;;793.70;2432.00;;;;;;5081594;28;20031;-70
2023/07/12 07:31:12;;;;;;;24.60;12.55;;;793.60;2432.00;;;;;;5085264;28;20048;-71
2023/07/12 07:33:39;;;;;;;16.83;12.50;;;793.60;2432.00;;;;;;5081487;28;20483;-73
2023/07/12 07:36:08;;;;;;;26.58;13.45;;;768.90;2432.00;;;;;;5089154;28;20051;-71
2023/07/12 07:38:35;;;;;;;16.90;13.27;;;768.90;2432.00;;;;;;5084186;28;20044;-71
2023/07/12 07:41:05;;;;;;;19.55;13.50;;;793.60;2432.00;;;;;;5081895;28;20039;-70
2023/07/12 07:43:31;;;;;;;19.23;13.63;;;768.90;2432.00;;;;;;5084710;28;20032;-70
2023/07/12 07:45:56;;;;;;;19.58;13.88;;;793.60;2432.00;;;;;;5089357;28;20025;-70
2023/07/12 07:48:22;;;;;;;20.35;15.55;;;793.70;2432.00;;;;;;5084483;28;20028;-69
2023/07/12 07:50:48;;;;;;;22.98;14.73;;;793.70;2432.00;;;;;;5086968;28;20024;-69
2023/07/12 07:53:13;;;;;;;21.52;13.98;;;794.00;2432.00;;;;;;5078374;28;20035;-69
2023/07/12 07:55:43;;;;;;;18.92;14.23;;;794.20;2432.00;;;;;;5082894;28;20025;-70
2023/07/12 07:58:09;;;;;;;18.75;13.63;;;794.20;2432.00;;;;;;5082706;28;20032;-69
2023/07/12 08:00:36;;;;;;;21.17;14.02;;;794.50;2406.40;;;;;;5078557;28;20039;-69
2023/07/12 08:03:03;;;;;;;19.27;13.93;;;819.20;2406.40;;;;;;5086557;28;20524;-70
2023/07/12 08:05:29;;;;;;;16.92;13.02;;;819.30;2355.20;;;;;;5086218;28;20047;-70
2023/07/12 08:07:56;;;;;;;18.98;13.90;;;819.30;2355.20;;;;;;5080094;28;20036;-73
2023/07/12 08:10:22;;;;;;;18.33;12.73;;;819.30;2304.00;;;;;;5085627;28;20024;-69
2023/07/12 08:12:48;;;;;;;19.17;11.52;;;819.50;2252.80;;;;;;5080056;28;20498;-69
2023/07/12 08:15:15;;;;;;;16.75;11.55;;;819.60;2227.20;;;;;;5079089;28;20416;-70
2023/07/12 08:17:40;;;;;;;19.80;10.93;;;819.60;2124.80;;;;;;5079803;28;20024;-70
2023/07/12 08:20:08;;;;;;;13.65;9.85;;;819.70;2048.00;;;;;;5085720;28;20070;-70
2023/07/12 08:22:34;;;;;;;13.65;9.55;;;819.80;1996.80;;;;;;5083474;28;20028;-71
2023/07/12 08:25:00;;;;;;;12.85;9.25;;;820.00;1945.60;;;;;;5080962;28;20446;-69
2023/07/12 08:27:25;;;;;;;13.93;9.85;;;820.10;1920.00;;;;;;5083381;28;20115;-72
2023/07/12 08:29:51;;;;;;;16.02;9.32;;;820.10;1894.40;;;;;;5082483;28;20024;-69
2023/07/12 08:32:18;;;;;;;15.25;9.02;;;844.80;1868.80;;;;;;5085923;28;20028;-72
2023/07/12 08:34:44;;;;;;;19.23;10.23;;;820.10;1868.80;;;;;;5080087;28;20020;-73
2023/07/12 08:37:10;;;;;;;11.98;8.45;;;820.10;1894.40;;;;;;5078823;28;20032;-72
2023/07/12 08:39:36;;;;;;;12.30;8.70;;;844.80;1920.00;;;;;;5085039;28;20023;-70
2023/07/12 08:42:13;;;;;;;15.70;9.02;;;844.90;1920.00;;;;;;5076497;28;20028;-71
2023/07/12 08:44:39;;;;;;;14.27;8.80;;;844.90;1868.80;;;;;;5085558;28;20020;-70
2023/07/12 08:47:09;;;;;;;15.10;9.52;;;844.90;1894.40;;;;;;5085145;28;20035;-69
2023/07/12 08:49:35;;;;;;;16.95;9.52;;;844.80;1920.00;;;;;;5081977;28;20035;-71
2023/07/12 08:52:05;;;;;;;17.13;10.43;;;820.10;1894.40;;;;;;5077509;28;20025;-71
2023/07/12 08:54:34;;;;;;;16.67;9.43;;;820.10;1868.80;;;;;;5081410;28;20020;-72
2023/07/12 08:57:19;;;;;;;15.10;9.65;;;820.10;1920.00;;;;;;5077747;28;20043;-71
2023/07/12 08:59:53;;;;;;;15.10;9.68;;;820.10;1971.20;;;;;;5090644;28;20541;-70
2023/07/12 09:02:24;;;;;;;13.73;9.05;;;820.00;1920.00;;;;;;5083395;28;20549;-75
2023/07/12 09:04:51;;;;;;;13.43;9.32;;;820.00;1945.60;;;;;;5087068;28;20081;-72
2023/07/12 09:07:24;;;;;;;16.20;10.05;;;820.00;1945.60;;;;;;5085991;28;20454;-71
2023/07/12 09:09:50;;;;;;;14.35;9.70;;;820.00;1945.60;;;;;;5081982;28;20036;-71
2023/07/12 09:12:25;;;;;;;16.05;9.75;;;820.00;1945.60;;;;;;5084745;28;20032;-71
2023/07/12 09:15:03;;;;;;;11.98;9.05;;;820.10;1971.20;;;;;;5087461;28;20024;-72
2023/07/12 09:17:34;;;;;;;16.42;9.40;;;820.10;1996.80;;;;;;5084145;28;20045;-76
2023/07/12 09:20:00;;;;;;;15.00;9.13;;;844.80;2048.00;;;;;;5083874;28;20099;-70
2023/07/12 09:22:29;;;;;;;10.95;8.13;;;820.10;2022.40;;;;;;5085507;28;20537;-74
2023/07/12 09:24:56;;;;;;;10.52;8.77;;;820.10;2022.40;;;;;;5077907;28;20029;-72
2023/07/12 09:27:27;;;;;;;14.52;8.90;;;820.10;1996.80;;;;;;5080600;28;20412;-71
2023/07/12 09:30:04;;;;;;;12.45;8.77;;;844.80;2073.60;;;;;;5083839;28;20039;-72
2023/07/12 09:32:32;;;;;;;11.38;8.65;;;844.90;2048.00;;;;;;5083623;28;20023;-72
2023/07/12 09:34:58;;;;;;;11.98;9.38;;;844.90;1996.80;;;;;;5081253;28;20115;-74
2023/07/12 09:37:24;;;;;;;13.35;9.45;;;845.20;2022.40;;;;;;5081161;28;20161;-71
2023/07/12 09:39:53;;;;;;;18.85;8.88;;;845.30;1996.80;;;;;;5087159;28;20036;-71
2023/07/12 09:42:19;;;;;;;11.48;8.00;;;845.40;1971.20;;;;;;5079629;28;20016;-75
2023/07/12 09:44:47;;;;;;;15.07;8.55;;;845.70;1996.80;;;;;;5083139;28;20363;-72
2023/07/12 09:47:35;;;;;;;13.13;8.18;;;870.40;1945.60;;;;;;5085821;28;20063;-71
2023/07/12 09:50:13;;;;;;;16.15;8.57;;;870.60;1868.80;;;;;;5077290;28;20032;-71
2023/07/12 09:52:57;;;;;;;11.77;7.80;;;870.70;1792.00;;;;;;5079157;28;20029;-71
2023/07/12 09:55:50;;;;;;;10.73;7.70;;;870.90;1740.80;;;;;;5084341;28;20381;-71
2023/07/12 09:58:20;;;;;;;14.00;8.18;;;871.10;1740.80;;;;;;5086787;28;20028;-70
2023/07/12 10:00:59;;;;;;;14.45;7.35;;;871.30;1715.20;;;;;;5077520;28;20071;-70
2023/07/12 10:03:51;;;;;;;11.88;7.72;;;871.30;1664.00;;;;;;5081591;28;20138;-72
2023/07/12 10:06:33;;;;;;;14.02;7.55;;;896.10;1664.00;;;;;;5075187;28;20127;-70
2023/07/12 10:09:06;;;;;;;12.65;6.60;;;896.10;1561.60;;;;;;5085869;28;20039;-75
2023/07/12 10:12:00;;;;;;;14.52;7.70;;;896.90;1459.20;;;;;;5080041;28;20048;-74
2023/07/12 10:14:38;;;;;;;13.63;6.82;;;922.00;1484.80;;;;;;5077754;28;20497;-73
2023/07/12 10:17:05;;;;;;;21.52;14.60;;;922.00;1459.20;;;;;;5083906;28;20470;-73
2023/07/12 10:19:37;;;;;;;20.95;14.48;;;922.00;1408.00;;;;;;5080355;28;20432;-76
2023/07/12 10:22:09;;;;;;;10.25;8.05;;;922.50;1356.80;;;;;;5079397;28;20439;-74
2023/07/12 10:24:42;;;;;;;28.75;18.05;;;947.50;1356.80;;;;;;5080235;28;20056;-72
2023/07/12 10:27:32;;;;;;;14.23;9.55;;;922.20;1382.40;;;;;;5078582;28;20107;-71
2023/07/12 10:30:09;;;;;;;12.88;5.93;;;922.30;1408.00;;;;;;5085076;28;20016;-70
2023/07/12 10:32:46;;;;;;;19.92;8.13;;;922.00;1408.00;;;;;;5081132;28;20366;-71
2023/07/12 10:35:27;;;;;;;22.33;17.20;;;922.20;1382.40;;;;;;5077919;28;20042;-75
2023/07/12 10:37:57;;;;;;;13.32;7.18;;;921.60;1433.60;;;;;;5081402;28;20068;-76
2023/07/12 10:40:36;;;;;;;14.23;6.80;;;921.70;1459.20;;;;;;5075247;28;20381;-73
2023/07/12 10:43:25;;;;;;;21.05;6.50;;;922.30;1433.60;;;;;;5086104;28;20110;-70
2023/07/12 10:45:56;;;;;;;11.68;6.32;;;922.00;1408.00;;;;;;5049841;28;20141;-73
2023/07/12 10:48:25;;;;;;;10.77;5.70;;;896.90;1408.00;;;;;;5049559;28;20041;-73
2023/07/12 10:50:55;;;;;;;9.80;6.20;;;921.80;1433.60;;;;;;5052029;28;20131;-72
2023/07/12 10:53:24;;;;;;;13.45;5.70;;;922.00;1433.60;;;;;;5054199;28;20095;-72
2023/07/12 10:56:08;;;;;;;12.35;6.75;;;921.90;1433.60;;;;;;5053796;28;20545;-72
2023/07/12 10:58:54;;;;;;;15.00;7.45;;;896.70;1459.20;;;;;;5053276;28;20041;-73
2023/07/12 11:01:40;;;;;;;16.70;6.97;;;922.00;1433.60;;;;;;4994310;28;20129;-74
2023/07/12 11:04:25;;;;;;;12.38;6.28;;;921.60;1433.60;;;;;;4994102;28;20038;-72
2023/07/12 11:07:02;;;;;;;10.30;6.47;;;896.70;1459.20;;;;;;4993617;28;20275;-72
2023/07/12 11:09:46;;;;;;;12.75;7.95;;;896.70;1484.80;;;;;;4994094;28;20044;-73
2023/07/12 11:12:32;;;;;;;10.10;6.85;;;921.60;1459.20;;;;;;4993794;28;20038;-73
2023/07/12 11:15:27;;;;;;;10.95;5.95;;;921.70;1459.20;;;;;;4994213;28;20037;-73
2023/07/12 11:18:23;;;;;;;13.15;6.82;;;896.30;1459.20;;;;;;4993961;28;20096;-72
2023/07/12 11:20:59;;;;;;;12.25;6.10;;;896.70;1459.20;;;;;;4994112;28;20027;-71
2023/07/12 11:23:29;;;;;;;8.95;6.00;;;896.90;1459.20;;;;;;5028412;28;20037;-71
2023/07/12 11:26:03;;;;;;;14.07;6.60;;;896.60;1510.40;;;;;;5043226;28;20439;-71
2023/07/12 11:28:40;;;;;;;13.48;6.53;;;896.00;1587.20;;;;;;5040625;28;20108;-73
2023/07/12 11:31:18;;;;;;;11.23;6.97;;;896.30;1561.60;;;;;;5045823;28;20384;-72
2023/07/12 11:34:05;;;;;;;12.18;6.20;;;896.80;1561.60;;;;;;5043782;28;20021;-72
2023/07/12 11:36:36;;;;;;;12.77;6.80;;;896.50;1612.80;;;;;;5039474;28;20033;-71
2023/07/12 11:39:09;;;;;;;13.18;6.57;;;896.10;1638.40;;;;;;5066768;28;20408;-72
2023/07/12 11:41:35;;;;;;;17.17;6.80;;;896.70;1561.60;;;;;;5086659;28;20364;-71
2023/07/12 11:44:07;;;;;;;15.55;6.50;;;921.60;1587.20;;;;;;5085062;28;20107;-72
2023/07/12 11:46:35;;;;;;;13.43;7.22;;;896.60;1561.60;;;;;;5080215;28;20025;-71
2023/07/12 11:49:04;;;;;;;13.50;7.05;;;896.30;1587.20;;;;;;5084592;28;20027;-70
2023/07/12 11:51:38;;;;;;;14.15;7.38;;;896.90;1536.00;;;;;;5085520;28;20024;-72
2023/07/12 11:54:40;;;;;;;15.38;7.43;;;921.60;1561.60;;;;;;5079114;28;20073;-71
2023/07/12 11:57:12;;;;;;;11.63;6.38;;;896.70;1536.00;;;;;;5080068;28;20036;-70
2023/07/12 11:59:41;;;;;;;20.65;6.80;;;921.70;1561.60;;;;;;5076058;28;20116;-70
2023/07/12 12:02:19;;;;;;;15.38;6.85;;;922.20;1510.40;;;;;;5080819;28;20060;-71
2023/07/12 12:04:48;;;;;;;13.93;7.05;;;922.50;1484.80;;;;;;5077854;28;20406;-70
2023/07/12 12:07:20;;;;;;;16.63;6.95;;;921.80;1510.40;;;;;;5081697;28;20055;-72
2023/07/12 12:09:47;;;;;;;12.80;7.50;;;921.90;1536.00;;;;;;5080649;28;20024;-70